sensor_id;sensor_type;location;lat;lon;timestamp;P1;durP1;ratioP1;P2;durP2;ratioP2
32876;SDS011;19226;51.600;8.034;2023-05-01T00:01:40;11.77;;;3.53;;
32876;SDS011;19226;51.600;8.034;2023-05-01T00:04:25;5.32;;;3.33;;
32876;SDS011;19226;51.600;8.034;2023-05-01T00:07:09;6.15;;;3.08;;
32876;SDS011;19226;51.600;8.034;2023-05-01T00:09:54;7.25;;;3.20;;
32876;SDS011;19226;51.600;8.034;2023-05-01T00:12:38;7.30;;;3.20;;
32876;SDS011;19226;51.600;8.034;2023-05-01T00:15:23;7.45;;;4.03;;
32876;SDS011;19226;51.600;8.034;2023-05-01T00:18:07;5.80;;;3.28;;
32876;SDS011;19226;51.600;8.034;2023-05-01T00:20:52;6.72;;;3.28;;
32876;SDS011;19226;51.600;8.034;2023-05-01T00:23:36;4.90;;;3.28;;
32876;SDS011;19226;51.600;8.034;2023-05-01T00:26:21;11.88;;;3.45;;
32876;SDS011;19226;51.600;8.034;2023-05-01T00:29:06;7.47;;;3.80;;
32876;SDS011;19226;51.600;8.034;2023-05-01T00:31:51;6.70;;;3.25;;
32876;SDS011;19226;51.600;8.034;2023-05-01T00:34:37;8.80;;;3.05;;
32876;SDS011;19226;51.600;8.034;2023-05-01T00:37:22;10.57;;;3.33;;
32876;SDS011;19226;51.600;8.034;2023-05-01T00:40:07;10.18;;;3.50;;
32876;SDS011;19226;51.600;8.034;2023-05-01T00:42:52;6.18;;;3.47;;
32876;SDS011;19226;51.600;8.034;2023-05-01T00:45:38;7.78;;;3.35;;
32876;SDS011;19226;51.600;8.034;2023-05-01T00:48:25;9.35;;;3.78;;
32876;SDS011;19226;51.600;8.034;2023-05-01T00:51:10;11.43;;;3.28;;
32876;SDS011;19226;51.600;8.034;2023-05-01T00:53:56;8.13;;;3.53;;
32876;SDS011;19226;51.600;8.034;2023-05-01T00:56:42;5.95;;;3.78;;
32876;SDS011;19226;51.600;8.034;2023-05-01T00:59:27;5.75;;;3.33;;
32876;SDS011;19226;51.600;8.034;2023-05-01T01:02:12;7.30;;;3.17;;
32876;SDS011;19226;51.600;8.034;2023-05-01T01:04:57;3.85;;;3.33;;
32876;SDS011;19226;51.600;8.034;2023-05-01T01:07:52;4.97;;;3.22;;
32876;SDS011;19226;51.600;8.034;2023-05-01T01:10:45;8.10;;;3.50;;
32876;SDS011;19226;51.600;8.034;2023-05-01T01:13:46;5.43;;;3.03;;
32876;SDS011;19226;51.600;8.034;2023-05-01T01:16:53;7.07;;;3.03;;
32876;SDS011;19226;51.600;8.034;2023-05-01T01:22:42;9.75;;;3.42;;
32876;SDS011;19226;51.600;8.034;2023-05-01T01:25:46;6.60;;;3.55;;
32876;SDS011;19226;51.600;8.034;2023-05-01T01:28:41;9.85;;;3.75;;
32876;SDS011;19226;51.600;8.034;2023-05-01T01:35:24;6.38;;;3.35;;
32876;SDS011;19226;51.600;8.034;2023-05-01T01:37:49;8.88;;;3.47;;
32876;SDS011;19226;51.600;8.034;2023-05-01T01:40:45;9.32;;;3.72;;
32876;SDS011;19226;51.600;8.034;2023-05-01T01:43:42;9.68;;;3.70;;
32876;SDS011;19226;51.600;8.034;2023-05-01T01:46:38;5.80;;;3.67;;
32876;SDS011;19226;51.600;8.034;2023-05-01T01:49:25;9.60;;;3.15;;
32876;SDS011;19226;51.600;8.034;2023-05-01T01:52:12;7.57;;;3.90;;
32876;SDS011;19226;51.600;8.034;2023-05-01T01:55:01;7.35;;;3.90;;
32876;SDS011;19226;51.600;8.034;2023-05-01T01:57:50;4.75;;;3.30;;
32876;SDS011;19226;51.600;8.034;2023-05-01T02:00:35;8.10;;;3.60;;
32876;SDS011;19226;51.600;8.034;2023-05-01T02:03:21;7.70;;;3.80;;
32876;SDS011;19226;51.600;8.034;2023-05-01T02:06:07;5.60;;;3.67;;
32876;SDS011;19226;51.600;8.034;2023-05-01T02:08:52;6.90;;;3.65;;
32876;SDS011;19226;51.600;8.034;2023-05-01T02:11:37;7.05;;;3.40;;
32876;SDS011;19226;51.600;8.034;2023-05-01T02:14:23;5.13;;;3.78;;
32876;SDS011;19226;51.600;8.034;2023-05-01T02:17:10;4.50;;;3.72;;
32876;SDS011;19226;51.600;8.034;2023-05-01T02:19:56;6.82;;;3.78;;
32876;SDS011;19226;51.600;8.034;2023-05-01T02:22:41;10.77;;;4.53;;
32876;SDS011;19226;51.600;8.034;2023-05-01T02:25:29;7.50;;;4.40;;
32876;SDS011;19226;51.600;8.034;2023-05-01T02:28:22;13.20;;;4.00;;
32876;SDS011;19226;51.600;8.034;2023-05-01T02:31:08;9.00;;;3.80;;
32876;SDS011;19226;51.600;8.034;2023-05-01T02:33:53;7.57;;;4.10;;
32876;SDS011;19226;51.600;8.034;2023-05-01T02:36:38;6.80;;;4.05;;
32876;SDS011;19226;51.600;8.034;2023-05-01T02:39:23;6.20;;;3.45;;
32876;SDS011;19226;51.600;8.034;2023-05-01T02:42:07;8.45;;;4.22;;
32876;SDS011;19226;51.600;8.034;2023-05-01T02:45:08;8.18;;;3.88;;
32876;SDS011;19226;51.600;8.034;2023-05-01T02:47:55;6.55;;;3.60;;
32876;SDS011;19226;51.600;8.034;2023-05-01T02:50:43;10.68;;;4.32;;
32876;SDS011;19226;51.600;8.034;2023-05-01T02:53:29;9.27;;;4.50;;
32876;SDS011;19226;51.600;8.034;2023-05-01T02:56:23;7.85;;;3.83;;
32876;SDS011;19226;51.600;8.034;2023-05-01T02:59:10;6.00;;;3.85;;
32876;SDS011;19226;51.600;8.034;2023-05-01T03:01:55;5.63;;;4.00;;
32876;SDS011;19226;51.600;8.034;2023-05-01T03:04:40;7.05;;;4.03;;
32876;SDS011;19226;51.600;8.034;2023-05-01T03:07:25;7.13;;;4.75;;
32876;SDS011;19226;51.600;8.034;2023-05-01T03:10:14;5.35;;;3.55;;
32876;SDS011;19226;51.600;8.034;2023-05-01T03:12:59;7.32;;;3.88;;
32876;SDS011;19226;51.600;8.034;2023-05-01T03:15:44;7.40;;;4.00;;
32876;SDS011;19226;51.600;8.034;2023-05-01T03:18:29;8.02;;;4.18;;
32876;SDS011;19226;51.600;8.034;2023-05-01T03:21:13;7.47;;;3.75;;
32876;SDS011;19226;51.600;8.034;2023-05-01T03:23:58;11.50;;;4.15;;
32876;SDS011;19226;51.600;8.034;2023-05-01T03:26:42;8.30;;;4.22;;
32876;SDS011;19226;51.600;8.034;2023-05-01T03:29:27;7.25;;;4.40;;
32876;SDS011;19226;51.600;8.034;2023-05-01T03:32:12;6.05;;;3.95;;
32876;SDS011;19226;51.600;8.034;2023-05-01T03:34:57;9.10;;;3.58;;
32876;SDS011;19226;51.600;8.034;2023-05-01T03:37:41;12.05;;;3.92;;
32876;SDS011;19226;51.600;8.034;2023-05-01T03:40:26;10.07;;;3.88;;
32876;SDS011;19226;51.600;8.034;2023-05-01T03:43:46;6.78;;;3.88;;
32876;SDS011;19226;51.600;8.034;2023-05-01T03:46:50;8.27;;;4.22;;
32876;SDS011;19226;51.600;8.034;2023-05-01T03:49:41;11.88;;;4.63;;
32876;SDS011;19226;51.600;8.034;2023-05-01T03:52:26;11.45;;;4.60;;
32876;SDS011;19226;51.600;8.034;2023-05-01T03:55:12;5.10;;;3.63;;
32876;SDS011;19226;51.600;8.034;2023-05-01T03:58:01;6.53;;;3.55;;
32876;SDS011;19226;51.600;8.034;2023-05-01T04:00:46;7.05;;;3.70;;
32876;SDS011;19226;51.600;8.034;2023-05-01T04:03:30;11.18;;;4.45;;
32876;SDS011;19226;51.600;8.034;2023-05-01T04:06:15;6.43;;;3.80;;
32876;SDS011;19226;51.600;8.034;2023-05-01T04:09:00;10.90;;;3.67;;
32876;SDS011;19226;51.600;8.034;2023-05-01T04:11:45;9.88;;;4.78;;
32876;SDS011;19226;51.600;8.034;2023-05-01T04:14:29;8.45;;;3.75;;
32876;SDS011;19226;51.600;8.034;2023-05-01T04:17:14;5.97;;;3.67;;
32876;SDS011;19226;51.600;8.034;2023-05-01T04:19:59;9.60;;;4.18;;
32876;SDS011;19226;51.600;8.034;2023-05-01T04:22:44;7.35;;;4.30;;
32876;SDS011;19226;51.600;8.034;2023-05-01T04:25:28;7.85;;;3.72;;
32876;SDS011;19226;51.600;8.034;2023-05-01T04:28:20;10.73;;;4.07;;
32876;SDS011;19226;51.600;8.034;2023-05-01T04:31:04;5.65;;;3.20;;
32876;SDS011;19226;51.600;8.034;2023-05-01T04:33:49;5.35;;;3.80;;
32876;SDS011;19226;51.600;8.034;2023-05-01T04:36:33;6.25;;;3.55;;
32876;SDS011;19226;51.600;8.034;2023-05-01T04:39:18;8.50;;;3.55;;
32876;SDS011;19226;51.600;8.034;2023-05-01T04:42:03;7.30;;;3.45;;
32876;SDS011;19226;51.600;8.034;2023-05-01T04:44:47;7.25;;;3.67;;
32876;SDS011;19226;51.600;8.034;2023-05-01T04:47:32;6.25;;;3.03;;
32876;SDS011;19226;51.600;8.034;2023-05-01T04:50:16;7.82;;;3.80;;
32876;SDS011;19226;51.600;8.034;2023-05-01T04:53:01;7.22;;;3.38;;
32876;SDS011;19226;51.600;8.034;2023-05-01T04:55:46;5.30;;;4.25;;
32876;SDS011;19226;51.600;8.034;2023-05-01T04:58:32;7.65;;;3.47;;
32876;SDS011;19226;51.600;8.034;2023-05-01T05:01:24;7.85;;;3.88;;
32876;SDS011;19226;51.600;8.034;2023-05-01T05:04:08;5.70;;;4.00;;
32876;SDS011;19226;51.600;8.034;2023-05-01T05:06:53;11.38;;;3.70;;
32876;SDS011;19226;51.600;8.034;2023-05-01T05:09:45;5.80;;;3.75;;
32876;SDS011;19226;51.600;8.034;2023-05-01T05:12:30;4.05;;;3.58;;
32876;SDS011;19226;51.600;8.034;2023-05-01T05:15:15;8.85;;;4.18;;
32876;SDS011;19226;51.600;8.034;2023-05-01T05:17:59;7.32;;;3.92;;
32876;SDS011;19226;51.600;8.034;2023-05-01T05:20:45;4.53;;;3.72;;
32876;SDS011;19226;51.600;8.034;2023-05-01T05:23:29;7.18;;;3.42;;
32876;SDS011;19226;51.600;8.034;2023-05-01T05:26:14;7.45;;;3.58;;
32876;SDS011;19226;51.600;8.034;2023-05-01T05:29:00;9.27;;;3.38;;
32876;SDS011;19226;51.600;8.034;2023-05-01T05:31:44;5.88;;;3.67;;
32876;SDS011;19226;51.600;8.034;2023-05-01T05:34:30;8.95;;;3.35;;
32876;SDS011;19226;51.600;8.034;2023-05-01T05:37:16;9.38;;;4.00;;
32876;SDS011;19226;51.600;8.034;2023-05-01T05:40:07;8.27;;;3.50;;
32876;SDS011;19226;51.600;8.034;2023-05-01T05:43:02;4.50;;;3.55;;
32876;SDS011;19226;51.600;8.034;2023-05-01T05:45:48;6.57;;;3.60;;
32876;SDS011;19226;51.600;8.034;2023-05-01T05:48:33;6.57;;;3.40;;
32876;SDS011;19226;51.600;8.034;2023-05-01T05:51:17;11.02;;;3.90;;
32876;SDS011;19226;51.600;8.034;2023-05-01T05:54:02;9.00;;;3.22;;
32876;SDS011;19226;51.600;8.034;2023-05-01T05:56:51;10.52;;;3.58;;
32876;SDS011;19226;51.600;8.034;2023-05-01T05:59:35;7.32;;;3.45;;
32876;SDS011;19226;51.600;8.034;2023-05-01T06:02:20;5.22;;;3.55;;
32876;SDS011;19226;51.600;8.034;2023-05-01T06:05:05;6.03;;;4.00;;
32876;SDS011;19226;51.600;8.034;2023-05-01T06:07:50;6.97;;;3.40;;
32876;SDS011;19226;51.600;8.034;2023-05-01T06:10:35;4.93;;;3.60;;
32876;SDS011;19226;51.600;8.034;2023-05-01T06:13:20;8.00;;;3.75;;
32876;SDS011;19226;51.600;8.034;2023-05-01T06:16:06;5.65;;;3.60;;
32876;SDS011;19226;51.600;8.034;2023-05-01T06:18:51;8.75;;;3.70;;
32876;SDS011;19226;51.600;8.034;2023-05-01T06:21:36;6.60;;;3.90;;
32876;SDS011;19226;51.600;8.034;2023-05-01T06:24:22;9.40;;;3.50;;
32876;SDS011;19226;51.600;8.034;2023-05-01T06:27:09;8.88;;;4.50;;
32876;SDS011;19226;51.600;8.034;2023-05-01T06:29:54;5.93;;;4.03;;
32876;SDS011;19226;51.600;8.034;2023-05-01T06:32:39;8.77;;;3.78;;
32876;SDS011;19226;51.600;8.034;2023-05-01T06:35:27;6.95;;;3.30;;
32876;SDS011;19226;51.600;8.034;2023-05-01T06:38:12;7.50;;;3.78;;
32876;SDS011;19226;51.600;8.034;2023-05-01T06:40:56;5.78;;;2.85;;
32876;SDS011;19226;51.600;8.034;2023-05-01T06:43:41;9.60;;;3.42;;
32876;SDS011;19226;51.600;8.034;2023-05-01T06:46:26;4.93;;;3.63;;
32876;SDS011;19226;51.600;8.034;2023-05-01T06:49:10;11.00;;;3.65;;
32876;SDS011;19226;51.600;8.034;2023-05-01T06:51:56;6.70;;;3.22;;
32876;SDS011;19226;51.600;8.034;2023-05-01T06:54:41;6.10;;;3.70;;
32876;SDS011;19226;51.600;8.034;2023-05-01T06:57:25;9.02;;;3.70;;
32876;SDS011;19226;51.600;8.034;2023-05-01T07:00:10;7.22;;;3.20;;
32876;SDS011;19226;51.600;8.034;2023-05-01T07:02:55;6.32;;;3.35;;
32876;SDS011;19226;51.600;8.034;2023-05-01T07:05:39;9.40;;;3.05;;
32876;SDS011;19226;51.600;8.034;2023-05-01T07:08:24;5.60;;;2.83;;
32876;SDS011;19226;51.600;8.034;2023-05-01T07:11:11;6.40;;;3.72;;
32876;SDS011;19226;51.600;8.034;2023-05-01T07:13:55;17.08;;;3.75;;
32876;SDS011;19226;51.600;8.034;2023-05-01T07:16:40;8.32;;;3.17;;
32876;SDS011;19226;51.600;8.034;2023-05-01T07:19:24;5.07;;;3.05;;
32876;SDS011;19226;51.600;8.034;2023-05-01T07:22:09;7.28;;;2.75;;
32876;SDS011;19226;51.600;8.034;2023-05-01T07:24:54;7.63;;;3.22;;
32876;SDS011;19226;51.600;8.034;2023-05-01T07:27:38;5.85;;;3.10;;
32876;SDS011;19226;51.600;8.034;2023-05-01T07:30:24;4.07;;;3.15;;
32876;SDS011;19226;51.600;8.034;2023-05-01T07:33:08;12.45;;;3.35;;
32876;SDS011;19226;51.600;8.034;2023-05-01T07:35:54;4.85;;;3.42;;
32876;SDS011;19226;51.600;8.034;2023-05-01T07:38:39;5.45;;;3.85;;
32876;SDS011;19226;51.600;8.034;2023-05-01T07:41:24;7.22;;;3.40;;
32876;SDS011;19226;51.600;8.034;2023-05-01T07:44:08;4.70;;;3.17;;
32876;SDS011;19226;51.600;8.034;2023-05-01T07:46:53;6.60;;;3.17;;
32876;SDS011;19226;51.600;8.034;2023-05-01T07:49:37;5.15;;;3.17;;
32876;SDS011;19226;51.600;8.034;2023-05-01T07:52:22;17.90;;;4.35;;
32876;SDS011;19226;51.600;8.034;2023-05-01T07:55:07;3.28;;;2.60;;
32876;SDS011;19226;51.600;8.034;2023-05-01T07:57:52;5.78;;;3.08;;
32876;SDS011;19226;51.600;8.034;2023-05-01T08:00:36;6.97;;;2.70;;
32876;SDS011;19226;51.600;8.034;2023-05-01T08:03:21;4.72;;;3.15;;
32876;SDS011;19226;51.600;8.034;2023-05-01T08:06:05;5.38;;;3.13;;
32876;SDS011;19226;51.600;8.034;2023-05-01T08:08:50;6.40;;;3.20;;
32876;SDS011;19226;51.600;8.034;2023-05-01T08:11:34;4.63;;;2.88;;
32876;SDS011;19226;51.600;8.034;2023-05-01T08:14:19;5.97;;;2.78;;
32876;SDS011;19226;51.600;8.034;2023-05-01T08:17:04;5.25;;;2.47;;
32876;SDS011;19226;51.600;8.034;2023-05-01T08:19:48;4.65;;;2.72;;
32876;SDS011;19226;51.600;8.034;2023-05-01T08:22:33;3.40;;;2.22;;
32876;SDS011;19226;51.600;8.034;2023-05-01T08:25:18;14.57;;;3.40;;
32876;SDS011;19226;51.600;8.034;2023-05-01T08:28:02;6.20;;;2.67;;
32876;SDS011;19226;51.600;8.034;2023-05-01T08:30:48;3.22;;;2.40;;
32876;SDS011;19226;51.600;8.034;2023-05-01T08:33:33;6.50;;;2.72;;
32876;SDS011;19226;51.600;8.034;2023-05-01T08:36:17;5.70;;;3.00;;
32876;SDS011;19226;51.600;8.034;2023-05-01T08:39:02;7.07;;;3.00;;
32876;SDS011;19226;51.600;8.034;2023-05-01T08:41:48;7.22;;;2.72;;
32876;SDS011;19226;51.600;8.034;2023-05-01T08:44:32;8.70;;;2.70;;
32876;SDS011;19226;51.600;8.034;2023-05-01T08:47:22;3.65;;;2.50;;
32876;SDS011;19226;51.600;8.034;2023-05-01T08:50:09;5.22;;;2.50;;
32876;SDS011;19226;51.600;8.034;2023-05-01T08:52:57;7.97;;;2.40;;
32876;SDS011;19226;51.600;8.034;2023-05-01T08:55:43;2.47;;;1.95;;
32876;SDS011;19226;51.600;8.034;2023-05-01T08:58:31;7.13;;;2.33;;
32876;SDS011;19226;51.600;8.034;2023-05-01T09:01:18;4.90;;;1.83;;
32876;SDS011;19226;51.600;8.034;2023-05-01T09:04:05;7.57;;;2.03;;
32876;SDS011;19226;51.600;8.034;2023-05-01T09:06:52;4.28;;;2.28;;
32876;SDS011;19226;51.600;8.034;2023-05-01T09:09:38;3.55;;;1.80;;
32876;SDS011;19226;51.600;8.034;2023-05-01T09:12:26;2.20;;;1.98;;
32876;SDS011;19226;51.600;8.034;2023-05-01T09:15:11;2.30;;;1.90;;
32876;SDS011;19226;51.600;8.034;2023-05-01T09:17:56;3.63;;;2.13;;
32876;SDS011;19226;51.600;8.034;2023-05-01T09:20:43;5.13;;;2.28;;
32876;SDS011;19226;51.600;8.034;2023-05-01T09:23:28;2.72;;;1.80;;
32876;SDS011;19226;51.600;8.034;2023-05-01T09:26:12;5.85;;;2.03;;
32876;SDS011;19226;51.600;8.034;2023-05-01T09:28:57;3.55;;;1.80;;
32876;SDS011;19226;51.600;8.034;2023-05-01T09:31:42;6.15;;;1.90;;
32876;SDS011;19226;51.600;8.034;2023-05-01T09:34:26;3.50;;;1.83;;
32876;SDS011;19226;51.600;8.034;2023-05-01T09:37:33;2.40;;;1.88;;
32876;SDS011;19226;51.600;8.034;2023-05-01T09:40:16;3.38;;;2.00;;
32876;SDS011;19226;51.600;8.034;2023-05-01T09:43:01;3.97;;;2.45;;
32876;SDS011;19226;51.600;8.034;2023-05-01T09:45:57;5.22;;;1.80;;
32876;SDS011;19226;51.600;8.034;2023-05-01T09:48:51;3.42;;;1.95;;
32876;SDS011;19226;51.600;8.034;2023-05-01T09:51:39;5.05;;;1.92;;
32876;SDS011;19226;51.600;8.034;2023-05-01T09:54:24;4.13;;;2.10;;
32876;SDS011;19226;51.600;8.034;2023-05-01T09:57:08;8.20;;;2.28;;
32876;SDS011;19226;51.600;8.034;2023-05-01T10:00:03;3.13;;;2.42;;
32876;SDS011;19226;51.600;8.034;2023-05-01T10:02:52;2.88;;;2.10;;
32876;SDS011;19226;51.600;8.034;2023-05-01T10:05:43;3.10;;;1.90;;
32876;SDS011;19226;51.600;8.034;2023-05-01T10:08:44;9.32;;;2.10;;
32876;SDS011;19226;51.600;8.034;2023-05-01T10:11:29;2.47;;;1.40;;
32876;SDS011;19226;51.600;8.034;2023-05-01T10:14:14;4.20;;;1.50;;
32876;SDS011;19226;51.600;8.034;2023-05-01T10:16:58;2.35;;;2.00;;
32876;SDS011;19226;51.600;8.034;2023-05-01T10:19:43;7.80;;;1.48;;
32876;SDS011;19226;51.600;8.034;2023-05-01T10:22:28;2.67;;;1.75;;
32876;SDS011;19226;51.600;8.034;2023-05-01T10:25:12;3.97;;;2.25;;
32876;SDS011;19226;51.600;8.034;2023-05-01T10:27:57;5.35;;;2.33;;
32876;SDS011;19226;51.600;8.034;2023-05-01T10:30:45;3.08;;;1.90;;
32876;SDS011;19226;51.600;8.034;2023-05-01T10:33:31;2.58;;;1.83;;
32876;SDS011;19226;51.600;8.034;2023-05-01T10:36:19;3.55;;;1.80;;
32876;SDS011;19226;51.600;8.034;2023-05-01T10:42:13;5.55;;;1.70;;
32876;SDS011;19226;51.600;8.034;2023-05-01T10:45:17;3.35;;;1.75;;
32876;SDS011;19226;51.600;8.034;2023-05-01T10:48:41;1.70;;;1.33;;
32876;SDS011;19226;51.600;8.034;2023-05-01T10:51:23;5.35;;;1.33;;
32876;SDS011;19226;51.600;8.034;2023-05-01T10:56:57;1.67;;;0.90;;
32876;SDS011;19226;51.600;8.034;2023-05-01T11:02:47;1.83;;;0.68;;
32876;SDS011;19226;51.600;8.034;2023-05-01T11:08:47;2.50;;;0.90;;
32876;SDS011;19226;51.600;8.034;2023-05-01T11:14:16;2.42;;;0.57;;
32876;SDS011;19226;51.600;8.034;2023-05-01T11:17:00;1.55;;;0.63;;
32876;SDS011;19226;51.600;8.034;2023-05-01T11:19:45;0.70;;;0.43;;
32876;SDS011;19226;51.600;8.034;2023-05-01T11:22:38;2.58;;;0.85;;
32876;SDS011;19226;51.600;8.034;2023-05-01T11:25:28;0.93;;;0.60;;
32876;SDS011;19226;51.600;8.034;2023-05-01T11:28:16;1.15;;;0.57;;
32876;SDS011;19226;51.600;8.034;2023-05-01T11:31:03;1.73;;;0.63;;
32876;SDS011;19226;51.600;8.034;2023-05-01T11:33:47;1.38;;;0.70;;
32876;SDS011;19226;51.600;8.034;2023-05-01T11:36:48;2.85;;;0.82;;
32876;SDS011;19226;51.600;8.034;2023-05-01T11:39:33;0.75;;;0.60;;
32876;SDS011;19226;51.600;8.034;2023-05-01T11:42:21;2.05;;;0.60;;
32876;SDS011;19226;51.600;8.034;2023-05-01T11:45:09;1.20;;;0.47;;
32876;SDS011;19226;51.600;8.034;2023-05-01T11:47:54;1.05;;;0.70;;
32876;SDS011;19226;51.600;8.034;2023-05-01T11:50:39;1.48;;;0.80;;
32876;SDS011;19226;51.600;8.034;2023-05-01T11:53:23;1.42;;;0.70;;
32876;SDS011;19226;51.600;8.034;2023-05-01T11:56:17;1.73;;;0.93;;
32876;SDS011;19226;51.600;8.034;2023-05-01T11:59:13;2.78;;;1.58;;
32876;SDS011;19226;51.600;8.034;2023-05-01T12:01:59;1.35;;;1.10;;
32876;SDS011;19226;51.600;8.034;2023-05-01T12:04:45;0.60;;;0.52;;
32876;SDS011;19226;51.600;8.034;2023-05-01T12:07:30;2.28;;;0.75;;
32876;SDS011;19226;51.600;8.034;2023-05-01T12:10:15;1.45;;;0.50;;
32876;SDS011;19226;51.600;8.034;2023-05-01T12:13:03;1.90;;;0.68;;
32876;SDS011;19226;51.600;8.034;2023-05-01T12:15:52;2.17;;;0.80;;
32876;SDS011;19226;51.600;8.034;2023-05-01T12:18:38;1.60;;;0.73;;
32876;SDS011;19226;51.600;8.034;2023-05-01T12:21:22;1.92;;;0.60;;
32876;SDS011;19226;51.600;8.034;2023-05-01T12:24:11;1.15;;;0.40;;
32876;SDS011;19226;51.600;8.034;2023-05-01T12:27:00;0.60;;;0.47;;
32876;SDS011;19226;51.600;8.034;2023-05-01T12:29:46;2.10;;;0.70;;
32876;SDS011;19226;51.600;8.034;2023-05-01T12:32:31;1.95;;;0.65;;
32876;SDS011;19226;51.600;8.034;2023-05-01T12:35:16;1.27;;;0.60;;
32876;SDS011;19226;51.600;8.034;2023-05-01T12:38:08;1.10;;;0.70;;
32876;SDS011;19226;51.600;8.034;2023-05-01T12:41:12;2.35;;;0.60;;
32876;SDS011;19226;51.600;8.034;2023-05-01T12:43:56;0.90;;;0.60;;
32876;SDS011;19226;51.600;8.034;2023-05-01T12:46:41;0.63;;;0.50;;
32876;SDS011;19226;51.600;8.034;2023-05-01T12:49:26;3.22;;;0.52;;
32876;SDS011;19226;51.600;8.034;2023-05-01T12:52:12;0.90;;;0.60;;
32876;SDS011;19226;51.600;8.034;2023-05-01T12:55:00;0.68;;;0.40;;
32876;SDS011;19226;51.600;8.034;2023-05-01T12:57:50;1.25;;;0.40;;
32876;SDS011;19226;51.600;8.034;2023-05-01T13:00:49;0.77;;;0.50;;
32876;SDS011;19226;51.600;8.034;2023-05-01T13:03:41;1.88;;;0.85;;
32876;SDS011;19226;51.600;8.034;2023-05-01T13:06:30;1.23;;;0.93;;
32876;SDS011;19226;51.600;8.034;2023-05-01T13:09:16;1.48;;;1.15;;
32876;SDS011;19226;51.600;8.034;2023-05-01T13:12:02;2.45;;;0.73;;
32876;SDS011;19226;51.600;8.034;2023-05-01T13:14:48;1.50;;;0.70;;
32876;SDS011;19226;51.600;8.034;2023-05-01T13:17:33;0.75;;;0.60;;
32876;SDS011;19226;51.600;8.034;2023-05-01T13:20:23;0.57;;;0.52;;
32876;SDS011;19226;51.600;8.034;2023-05-01T13:23:10;1.00;;;0.55;;
32876;SDS011;19226;51.600;8.034;2023-05-01T13:25:58;2.03;;;0.45;;
32876;SDS011;19226;51.600;8.034;2023-05-01T13:28:43;1.17;;;0.60;;
32876;SDS011;19226;51.600;8.034;2023-05-01T13:31:28;0.70;;;0.70;;
32876;SDS011;19226;51.600;8.034;2023-05-01T13:34:14;1.10;;;0.57;;
32876;SDS011;19226;51.600;8.034;2023-05-01T13:37:03;0.82;;;0.50;;
32876;SDS011;19226;51.600;8.034;2023-05-01T13:39:56;0.60;;;0.60;;
32876;SDS011;19226;51.600;8.034;2023-05-01T13:42:42;1.95;;;0.70;;
32876;SDS011;19226;51.600;8.034;2023-05-01T13:45:26;0.82;;;0.50;;
32876;SDS011;19226;51.600;8.034;2023-05-01T13:48:11;0.77;;;0.40;;
32876;SDS011;19226;51.600;8.034;2023-05-01T13:50:56;1.92;;;0.70;;
32876;SDS011;19226;51.600;8.034;2023-05-01T13:53:41;0.47;;;0.47;;
32876;SDS011;19226;51.600;8.034;2023-05-01T13:56:25;1.05;;;0.65;;
32876;SDS011;19226;51.600;8.034;2023-05-01T13:59:10;3.38;;;0.63;;
32876;SDS011;19226;51.600;8.034;2023-05-01T14:01:55;1.05;;;0.50;;
32876;SDS011;19226;51.600;8.034;2023-05-01T14:04:39;1.33;;;0.60;;
32876;SDS011;19226;51.600;8.034;2023-05-01T14:07:24;1.17;;;0.45;;
32876;SDS011;19226;51.600;8.034;2023-05-01T14:10:09;0.75;;;0.50;;
32876;SDS011;19226;51.600;8.034;2023-05-01T14:12:54;1.58;;;0.70;;
32876;SDS011;19226;51.600;8.034;2023-05-01T14:15:40;3.15;;;0.85;;
32876;SDS011;19226;51.600;8.034;2023-05-01T14:21:41;1.20;;;0.75;;
32876;SDS011;19226;51.600;8.034;2023-05-01T14:24:25;3.90;;;0.80;;
32876;SDS011;19226;51.600;8.034;2023-05-01T14:27:12;5.32;;;0.57;;
32876;SDS011;19226;51.600;8.034;2023-05-01T14:29:57;2.92;;;0.73;;
32876;SDS011;19226;51.600;8.034;2023-05-01T14:32:42;0.90;;;0.60;;
32876;SDS011;19226;51.600;8.034;2023-05-01T14:35:26;1.15;;;0.55;;
32876;SDS011;19226;51.600;8.034;2023-05-01T14:38:12;1.50;;;0.40;;
32876;SDS011;19226;51.600;8.034;2023-05-01T14:40:57;0.52;;;0.52;;
32876;SDS011;19226;51.600;8.034;2023-05-01T14:43:42;0.90;;;0.68;;
32876;SDS011;19226;51.600;8.034;2023-05-01T14:46:30;3.55;;;0.85;;
32876;SDS011;19226;51.600;8.034;2023-05-01T14:49:18;1.60;;;0.70;;
32876;SDS011;19226;51.600;8.034;2023-05-01T14:52:09;0.70;;;0.70;;
32876;SDS011;19226;51.600;8.034;2023-05-01T14:54:54;3.40;;;2.35;;
32876;SDS011;19226;51.600;8.034;2023-05-01T14:57:39;0.90;;;0.75;;
32876;SDS011;19226;51.600;8.034;2023-05-01T15:00:23;1.75;;;0.70;;
32876;SDS011;19226;51.600;8.034;2023-05-01T15:03:09;1.00;;;0.80;;
32876;SDS011;19226;51.600;8.034;2023-05-01T15:05:54;5.47;;;3.80;;
32876;SDS011;19226;51.600;8.034;2023-05-01T15:08:39;2.47;;;1.67;;
32876;SDS011;19226;51.600;8.034;2023-05-01T15:11:24;1.95;;;0.90;;
32876;SDS011;19226;51.600;8.034;2023-05-01T15:14:08;2.72;;;1.27;;
32876;SDS011;19226;51.600;8.034;2023-05-01T15:16:53;6.75;;;4.47;;
32876;SDS011;19226;51.600;8.034;2023-05-01T15:19:38;1.38;;;1.27;;
32876;SDS011;19226;51.600;8.034;2023-05-01T15:22:22;5.10;;;4.10;;
32876;SDS011;19226;51.600;8.034;2023-05-01T15:25:07;3.65;;;2.85;;
32876;SDS011;19226;51.600;8.034;2023-05-01T15:27:53;4.53;;;0.90;;
32876;SDS011;19226;51.600;8.034;2023-05-01T15:30:39;2.88;;;1.00;;
32876;SDS011;19226;51.600;8.034;2023-05-01T15:33:27;2.30;;;0.98;;
32876;SDS011;19226;51.600;8.034;2023-05-01T15:36:12;1.90;;;1.00;;
32876;SDS011;19226;51.600;8.034;2023-05-01T15:38:56;2.15;;;1.02;;
32876;SDS011;19226;51.600;8.034;2023-05-01T15:41:41;3.60;;;1.23;;
32876;SDS011;19226;51.600;8.034;2023-05-01T15:44:26;1.48;;;0.98;;
32876;SDS011;19226;51.600;8.034;2023-05-01T15:47:11;1.30;;;0.90;;
32876;SDS011;19226;51.600;8.034;2023-05-01T15:49:57;0.80;;;0.60;;
32876;SDS011;19226;51.600;8.034;2023-05-01T15:52:41;1.10;;;0.88;;
32876;SDS011;19226;51.600;8.034;2023-05-01T15:55:26;2.17;;;0.75;;
32876;SDS011;19226;51.600;8.034;2023-05-01T15:58:11;3.33;;;1.25;;
32876;SDS011;19226;51.600;8.034;2023-05-01T16:00:56;3.60;;;0.70;;
32876;SDS011;19226;51.600;8.034;2023-05-01T16:03:42;1.02;;;0.90;;
32876;SDS011;19226;51.600;8.034;2023-05-01T16:06:28;1.17;;;0.70;;
32876;SDS011;19226;51.600;8.034;2023-05-01T16:09:14;8.20;;;1.45;;
32876;SDS011;19226;51.600;8.034;2023-05-01T16:11:58;1.48;;;0.70;;
32876;SDS011;19226;51.600;8.034;2023-05-01T16:14:45;3.95;;;1.02;;
32876;SDS011;19226;51.600;8.034;2023-05-01T16:17:31;0.70;;;0.70;;
32876;SDS011;19226;51.600;8.034;2023-05-01T16:20:18;0.88;;;0.80;;
32876;SDS011;19226;51.600;8.034;2023-05-01T16:23:03;3.05;;;0.90;;
32876;SDS011;19226;51.600;8.034;2023-05-01T16:25:48;1.10;;;0.70;;
32876;SDS011;19226;51.600;8.034;2023-05-01T16:28:33;0.80;;;0.80;;
32876;SDS011;19226;51.600;8.034;2023-05-01T16:31:18;3.75;;;0.70;;
32876;SDS011;19226;51.600;8.034;2023-05-01T16:34:04;0.65;;;0.65;;
32876;SDS011;19226;51.600;8.034;2023-05-01T16:36:50;1.52;;;0.73;;
32876;SDS011;19226;51.600;8.034;2023-05-01T16:39:35;1.52;;;0.88;;
32876;SDS011;19226;51.600;8.034;2023-05-01T16:42:21;1.00;;;0.90;;
32876;SDS011;19226;51.600;8.034;2023-05-01T16:45:05;1.60;;;1.50;;
32876;SDS011;19226;51.600;8.034;2023-05-01T16:47:50;1.58;;;1.48;;
32876;SDS011;19226;51.600;8.034;2023-05-01T16:50:37;1.38;;;0.95;;
32876;SDS011;19226;51.600;8.034;2023-05-01T16:53:24;1.77;;;0.95;;
32876;SDS011;19226;51.600;8.034;2023-05-01T16:56:09;1.70;;;1.10;;
32876;SDS011;19226;51.600;8.034;2023-05-01T16:58:53;5.25;;;1.10;;
32876;SDS011;19226;51.600;8.034;2023-05-01T17:01:38;1.33;;;1.23;;
32876;SDS011;19226;51.600;8.034;2023-05-01T17:04:22;3.45;;;1.48;;
32876;SDS011;19226;51.600;8.034;2023-05-01T17:07:07;3.92;;;1.58;;
32876;SDS011;19226;51.600;8.034;2023-05-01T17:09:52;2.22;;;1.80;;